Portknockie, United Kingdom
Current Conditions -  °F | °C
As of 4:50 AM on Friday 28 Nov 2014 (Local Time) from EGQS Reporting Station
Light Rain Light Rain  
Wind Chill: 44°   Ceiling: Unl
Heat Index: 48°   Visibility: 6mi
Dew Point: 46°   Wind: 10mph
Humidity: 93%   Direction: 130°SE
Pressure: 29.71"   Gusts: NA
Location:  57.7°N, 2.86°W
Report Text: EGQS 280450Z 13009KT 9999 -RA FEW012 SCT065 09/08 Q1006 BLU
Loading
Personal Weather Stations






























Interactive Weather Map New forecast layout! Learn more

10-Day Weather Forecast

Advertisements
Track Severe Weather on mobile